Terminal Aerodrome Forecast
Issued by NWS

Current Version | Previous Version | Graphics & Text | Print | Product List | Glossary Off
Versions: 1 2 3 4 5 6 7 8 9 10 11 12 13 14 15 16 17 18

000
FTUS41 KPBZ 261720
TAFMGW
TAF
KMGW 261720Z 2618/2718 33005KT P6SM BKN035
     FM262100 33002KT P6SM BKN250
     FM270900 00000KT 4SM HZ BR SKC
     FM271200 10003KT P6SM SKC=

USA.gov is the U.S. government's official web portal to all federal, state and local government web resources and services.